createdAt,value
2023-10-18T00:00:16.087Z,62.88
2023-10-18T00:02:44.391Z,62.92
2023-10-18T00:05:11.130Z,63.10
2023-10-18T00:07:37.716Z,63.19
2023-10-18T00:10:04.740Z,63.86
2023-10-18T00:12:31.307Z,63.83
2023-10-18T00:14:57.835Z,64.25
2023-10-18T00:17:24.400Z,64.22
2023-10-18T00:19:50.924Z,64.54
2023-10-18T00:22:17.485Z,64.89
2023-10-18T00:24:43.881Z,65.17
2023-10-18T00:27:10.370Z,64.89
2023-10-18T00:29:37.151Z,66.04
2023-10-18T00:32:04.662Z,67.45
2023-10-18T00:34:31.206Z,67.60
2023-10-18T00:36:57.606Z,68.06
2023-10-18T00:39:24.019Z,67.00
2023-10-18T00:41:50.377Z,66.71
2023-10-18T00:44:16.742Z,66.83
2023-10-18T00:46:43.323Z,67.45
2023-10-18T00:49:10.632Z,66.86
2023-10-18T00:51:37.287Z,66.64
2023-10-18T00:54:03.880Z,65.97
2023-10-18T00:56:30.272Z,65.69
2023-10-18T00:58:56.710Z,66.01
2023-10-18T01:01:23.202Z,65.97
2023-10-18T01:03:52.883Z,65.22
2023-10-18T01:06:22.776Z,67.09
2023-10-18T01:08:50.466Z,68.96
2023-10-18T01:11:18.028Z,69.26
2023-10-18T01:13:44.527Z,69.86
2023-10-18T01:16:13.174Z,70.70
2023-10-18T01:18:39.939Z,69.03
2023-10-18T01:21:13.727Z,68.79
2023-10-18T01:23:45.341Z,67.99
2023-10-18T01:26:12.330Z,67.11
2023-10-18T01:28:38.898Z,67.14
2023-10-18T01:31:05.469Z,67.39
2023-10-18T01:33:32.007Z,67.94
2023-10-18T01:35:58.553Z,69.13
2023-10-18T01:38:26.591Z,69.64
2023-10-18T01:40:53.121Z,70.81
2023-10-18T01:43:20.429Z,69.51
2023-10-18T01:45:46.993Z,68.60
2023-10-18T01:48:13.665Z,69.05
2023-10-18T01:50:40.253Z,68.66
2023-10-18T01:53:06.866Z,67.79
2023-10-18T01:55:33.425Z,66.91
2023-10-18T01:58:00.042Z,66.21
2023-10-18T02:00:26.678Z,65.31
2023-10-18T02:02:53.326Z,65.41
2023-10-18T02:05:20.141Z,65.26
2023-10-18T02:07:46.702Z,66.55
2023-10-18T02:10:13.625Z,68.36
2023-10-18T02:12:40.169Z,67.46
2023-10-18T02:15:07.131Z,67.28
2023-10-18T02:17:33.822Z,66.42
2023-10-18T02:20:00.398Z,65.35
2023-10-18T02:22:27.049Z,64.50
2023-10-18T02:24:53.427Z,64.16
2023-10-18T02:27:19.832Z,64.08
2023-10-18T02:29:46.760Z,63.57
2023-10-18T02:32:13.599Z,64.02
2023-10-18T02:34:39.989Z,63.51
2023-10-18T02:37:06.472Z,63.58
2023-10-18T02:39:32.911Z,63.17
2023-10-18T02:41:59.904Z,62.94
2023-10-18T02:44:26.912Z,63.48
2023-10-18T02:46:54.626Z,63.06
2023-10-18T02:49:22.273Z,62.86
2023-10-18T02:51:48.892Z,63.16
2023-10-18T02:54:15.392Z,62.94
2023-10-18T02:56:43.341Z,62.18
2023-10-18T02:59:09.710Z,62.12
2023-10-18T03:01:37.599Z,62.03
2023-10-18T03:04:05.010Z,61.75
2023-10-18T03:06:31.441Z,61.50
2023-10-18T03:08:57.801Z,62.96
2023-10-18T03:11:24.181Z,62.27
2023-10-18T03:13:50.697Z,62.05
2023-10-18T03:16:17.273Z,62.78
2023-10-18T03:18:44.263Z,62.92
2023-10-18T03:21:10.811Z,62.69
2023-10-18T03:23:37.427Z,63.15
2023-10-18T03:26:03.986Z,62.38
2023-10-18T03:28:30.541Z,62.62
2023-10-18T03:30:57.118Z,62.88
2023-10-18T03:33:23.696Z,63.11
2023-10-18T03:36:10.773Z,63.17
2023-10-18T03:38:41.276Z,63.38
2023-10-18T03:41:07.879Z,63.32
2023-10-18T03:43:34.696Z,62.47
2023-10-18T03:46:05.171Z,62.21
2023-10-18T03:48:31.887Z,62.59
2023-10-18T03:50:58.415Z,62.43
2023-10-18T03:53:25.036Z,61.43
2023-10-18T03:55:51.605Z,61.45
2023-10-18T03:58:18.227Z,62.13
2023-10-18T04:00:44.836Z,61.76
2023-10-18T04:03:13.418Z,61.92
2023-10-18T04:05:41.464Z,61.49
2023-10-18T04:08:09.398Z,62.10
2023-10-18T04:10:35.974Z,62.15
2023-10-18T04:13:06.404Z,62.15
2023-10-18T04:15:36.057Z,62.07
2023-10-18T04:18:02.723Z,61.84
2023-10-18T04:20:29.418Z,61.93
2023-10-18T04:22:55.994Z,61.32
2023-10-18T04:25:22.682Z,60.87
2023-10-18T04:27:49.424Z,61.66
2023-10-18T04:30:16.026Z,61.86
2023-10-18T04:32:42.728Z,61.52
2023-10-18T04:35:09.798Z,61.10
2023-10-18T04:37:36.320Z,61.55
2023-10-18T04:40:03.124Z,61.31
2023-10-18T04:42:29.757Z,61.24
2023-10-18T04:44:56.294Z,61.64
2023-10-18T04:47:22.867Z,61.42
2023-10-18T04:49:49.434Z,61.32
2023-10-18T04:52:16.041Z,61.01
2023-10-18T04:54:42.838Z,61.70
2023-10-18T04:57:09.617Z,61.55
2023-10-18T04:59:38.044Z,62.20
2023-10-18T05:02:04.816Z,62.83
2023-10-18T05:04:31.910Z,62.36
2023-10-18T05:07:00.581Z,63.19
2023-10-18T05:09:30.818Z,63.08
2023-10-18T05:12:05.805Z,63.08
2023-10-18T05:14:42.465Z,62.73
2023-10-18T05:17:17.979Z,62.54
2023-10-18T05:19:47.296Z,62.90
2023-10-18T05:22:14.525Z,62.60
2023-10-18T05:24:41.128Z,62.89
2023-10-18T05:27:07.696Z,62.94
2023-10-18T05:29:34.284Z,62.43
2023-10-18T05:32:00.887Z,62.52
2023-10-18T05:34:27.550Z,63.00
2023-10-18T05:36:54.112Z,63.45
2023-10-18T05:39:20.706Z,63.94
2023-10-18T05:41:49.929Z,63.77
2023-10-18T05:44:16.570Z,64.45
2023-10-18T05:46:43.243Z,63.84
2023-10-18T05:49:09.856Z,63.91
2023-10-18T05:51:38.882Z,63.83
2023-10-18T05:54:07.171Z,63.53
2023-10-18T05:56:34.608Z,63.31
2023-10-18T05:59:04.202Z,63.67
2023-10-18T06:01:30.983Z,63.25
2023-10-18T06:03:57.670Z,63.67
2023-10-18T06:06:24.280Z,62.96
2023-10-18T06:08:50.842Z,62.40
2023-10-18T06:11:17.388Z,62.62
2023-10-18T06:13:43.754Z,63.00
2023-10-18T06:16:11.742Z,63.11
2023-10-18T06:18:39.248Z,63.28
2023-10-18T06:21:09.154Z,63.36
2023-10-18T06:23:35.532Z,63.28
2023-10-18T06:26:02.023Z,63.39
2023-10-18T06:28:28.444Z,64.96
2023-10-18T06:30:56.037Z,64.56
2023-10-18T06:33:22.678Z,65.22
2023-10-18T06:35:50.001Z,64.22
2023-10-18T06:38:16.366Z,64.29
2023-10-18T06:40:50.470Z,64.54
2023-10-18T06:43:21.272Z,64.02
2023-10-18T06:45:49.474Z,63.45
2023-10-18T06:48:16.891Z,63.27
2023-10-18T06:50:43.814Z,63.15
2023-10-18T06:53:10.289Z,63.19
2023-10-18T06:55:36.790Z,62.97
2023-10-18T06:58:04.365Z,62.80
2023-10-18T07:00:30.805Z,62.71
2023-10-18T07:02:57.246Z,63.16
2023-10-18T07:05:23.637Z,63.38
2023-10-18T07:07:49.998Z,63.16
2023-10-18T07:10:16.521Z,63.20
2023-10-18T07:12:43.068Z,63.52
2023-10-18T07:15:10.250Z,63.42
2023-10-18T07:17:36.789Z,63.94
2023-10-18T07:20:03.702Z,63.67
2023-10-18T07:22:30.329Z,63.46
2023-10-18T07:24:56.988Z,64.08
2023-10-18T07:27:23.748Z,63.77
2023-10-18T07:29:50.766Z,64.22
2023-10-18T07:32:17.614Z,64.08
2023-10-18T07:34:44.488Z,64.13
2023-10-18T07:37:11.298Z,64.19
2023-10-18T07:39:37.871Z,64.25
2023-10-18T07:42:04.482Z,63.78
2023-10-18T07:44:31.418Z,63.62
2023-10-18T07:46:58.283Z,63.48
2023-10-18T07:49:24.914Z,63.08
2023-10-18T07:51:51.669Z,63.98
2023-10-18T07:54:19.871Z,63.25
2023-10-18T07:56:47.298Z,62.93
2023-10-18T07:59:13.776Z,62.31
2023-10-18T08:01:40.253Z,62.71
2023-10-18T08:04:06.914Z,63.49
2023-10-18T08:06:33.511Z,63.40
2023-10-18T08:09:00.082Z,62.47
2023-10-18T08:11:26.464Z,63.34
2023-10-18T08:13:52.896Z,63.60
2023-10-18T08:16:19.479Z,63.28
2023-10-18T08:18:48.876Z,63.55
2023-10-18T08:21:15.317Z,63.40
2023-10-18T08:23:41.949Z,63.15
2023-10-18T08:26:08.541Z,63.14
2023-10-18T08:28:38.720Z,62.73
2023-10-18T08:31:19.965Z,62.78
2023-10-18T08:33:49.074Z,63.25
2023-10-18T08:36:15.792Z,63.38
2023-10-18T08:38:42.271Z,62.75
2023-10-18T08:41:15.307Z,63.29
2023-10-18T08:43:59.639Z,61.69
2023-10-18T08:46:27.106Z,61.71
2023-10-18T08:48:56.501Z,61.87
2023-10-18T08:51:25.271Z,61.30
2023-10-18T08:53:55.929Z,60.57
2023-10-18T08:56:24.929Z,60.38
2023-10-18T08:58:54.843Z,59.56
2023-10-18T09:01:21.780Z,59.57
2023-10-18T09:03:48.764Z,59.18
2023-10-18T09:06:15.911Z,58.66
2023-10-18T09:08:42.707Z,58.30
2023-10-18T09:11:12.594Z,57.95
2023-10-18T09:13:39.756Z,57.89
2023-10-18T09:16:06.616Z,57.64
2023-10-18T09:18:34.236Z,59.76
2023-10-18T09:21:02.016Z,59.02
2023-10-18T09:23:28.653Z,58.43
2023-10-18T09:25:55.342Z,57.31
2023-10-18T09:28:22.615Z,57.05
2023-10-18T09:30:49.078Z,56.66
2023-10-18T09:33:15.551Z,56.34
2023-10-18T09:35:42.029Z,57.08
2023-10-18T09:38:08.434Z,57.03
2023-10-18T09:40:37.961Z,55.88
2023-10-18T09:43:04.530Z,57.09
2023-10-18T09:45:31.007Z,57.08
2023-10-18T09:47:58.011Z,57.12
2023-10-18T09:50:25.624Z,56.99
2023-10-18T09:52:52.090Z,56.69
2023-10-18T09:55:19.046Z,56.34
2023-10-18T09:57:46.660Z,55.50
2023-10-18T10:00:13.817Z,55.20
2023-10-18T10:02:41.184Z,54.42
2023-10-18T10:05:08.039Z,54.70
2023-10-18T10:07:35.423Z,53.91
2023-10-18T10:10:03.416Z,54.69
2023-10-18T10:12:30.913Z,54.27
2023-10-18T10:14:57.721Z,54.73
2023-10-18T10:17:26.883Z,55.09
2023-10-18T10:19:58.128Z,55.71
2023-10-18T10:22:29.552Z,54.81
2023-10-18T10:25:09.177Z,54.66
2023-10-18T10:27:44.899Z,55.90
2023-10-18T10:30:16.319Z,57.06
2023-10-18T10:32:42.823Z,55.86
2023-10-18T10:35:11.982Z,56.57
2023-10-18T10:38:08.915Z,56.15
2023-10-18T10:40:41.599Z,56.37
2023-10-18T10:43:09.346Z,56.50
2023-10-18T10:45:38.221Z,56.68
2023-10-18T10:48:16.427Z,57.27
2023-10-18T10:50:45.007Z,56.39
2023-10-18T10:53:11.582Z,55.98
2023-10-18T10:55:38.093Z,55.92
2023-10-18T10:58:10.630Z,56.00
2023-10-18T11:00:37.173Z,55.97
2023-10-18T11:03:30.498Z,56.63
2023-10-18T11:05:57.412Z,56.25
2023-10-18T11:08:24.192Z,55.71
2023-10-18T11:10:51.000Z,55.88
2023-10-18T11:13:17.576Z,56.25
2023-10-18T11:15:44.181Z,56.23
2023-10-18T11:18:10.839Z,56.74
2023-10-18T11:20:38.648Z,57.57
2023-10-18T11:23:05.301Z,57.14
2023-10-18T11:25:32.079Z,57.44
2023-10-18T11:27:59.485Z,57.73
2023-10-18T11:30:26.046Z,57.66
2023-10-18T11:32:54.181Z,58.10
2023-10-18T11:35:27.947Z,57.50
2023-10-18T11:37:55.170Z,57.64
2023-10-18T11:40:21.858Z,58.68
2023-10-18T11:43:00.230Z,59.01
2023-10-18T11:45:26.657Z,59.21
2023-10-18T11:47:53.086Z,58.76
2023-10-18T11:50:20.139Z,59.39
2023-10-18T11:52:46.768Z,58.32
2023-10-18T11:55:13.215Z,58.22
2023-10-18T11:57:39.742Z,58.35
2023-10-18T12:00:07.208Z,57.98
2023-10-18T12:02:33.704Z,57.72
2023-10-18T12:05:00.367Z,57.82
2023-10-18T12:07:27.084Z,58.00
2023-10-18T12:09:53.611Z,57.79
2023-10-18T12:12:20.456Z,57.76
2023-10-18T12:14:47.873Z,57.96
2023-10-18T12:17:16.360Z,58.05
2023-10-18T12:19:43.686Z,60.03
2023-10-18T12:22:10.841Z,59.32
2023-10-18T12:24:37.397Z,60.01
2023-10-18T12:27:05.062Z,59.11
2023-10-18T12:29:31.854Z,59.55
2023-10-18T12:32:01.001Z,59.90
2023-10-18T12:34:28.504Z,59.26
2023-10-18T12:36:56.317Z,59.97
2023-10-18T12:39:23.139Z,59.22
2023-10-18T12:41:50.220Z,59.08
2023-10-18T12:44:16.813Z,58.67
2023-10-18T12:46:43.460Z,58.99
2023-10-18T12:49:10.304Z,60.64
2023-10-18T12:51:37.629Z,60.24
2023-10-18T12:54:04.474Z,59.63
2023-10-18T12:56:31.114Z,59.49
2023-10-18T12:58:59.137Z,59.16
2023-10-18T13:01:26.553Z,58.84
2023-10-18T13:03:53.139Z,60.29
2023-10-18T13:06:19.716Z,60.56
2023-10-18T13:08:46.163Z,59.36
2023-10-18T13:11:14.322Z,59.43
2023-10-18T13:13:42.215Z,59.24
2023-10-18T13:16:08.692Z,58.40
2023-10-18T13:18:35.145Z,58.35
2023-10-18T13:21:01.877Z,58.23
2023-10-18T13:23:28.304Z,57.94
2023-10-18T13:25:55.051Z,57.80
2023-10-18T13:28:22.353Z,57.85
2023-10-18T13:30:48.875Z,57.96
2023-10-18T13:33:15.374Z,57.78
2023-10-18T13:35:42.063Z,57.76
2023-10-18T13:38:08.681Z,58.62
2023-10-18T13:40:35.138Z,58.34
2023-10-18T13:43:01.566Z,59.11
2023-10-18T13:45:28.002Z,58.35
2023-10-18T13:47:54.546Z,59.28
2023-10-18T13:50:21.078Z,58.65
2023-10-18T13:52:47.574Z,58.98
2023-10-18T13:55:14.003Z,59.29
2023-10-18T13:57:41.163Z,58.68
2023-10-18T14:00:08.538Z,59.74
2023-10-18T14:02:35.751Z,60.33
2023-10-18T14:05:02.696Z,60.58
2023-10-18T14:07:29.188Z,60.00
2023-10-18T14:09:55.604Z,60.21
2023-10-18T14:12:22.093Z,60.43
2023-10-18T14:14:48.733Z,60.78
2023-10-18T14:17:15.921Z,60.36
2023-10-18T14:19:43.772Z,60.44
2023-10-18T14:22:10.382Z,60.52
2023-10-18T14:24:36.854Z,60.21
2023-10-18T14:27:03.474Z,60.47
2023-10-18T14:29:30.142Z,59.93
2023-10-18T14:31:56.821Z,60.27
2023-10-18T14:34:23.317Z,60.11
2023-10-18T14:36:49.820Z,61.16
2023-10-18T14:39:16.260Z,62.24
2023-10-18T14:41:42.700Z,62.31
2023-10-18T14:44:09.462Z,62.37
2023-10-18T14:46:36.107Z,62.31
2023-10-18T14:49:02.622Z,62.69
2023-10-18T14:51:30.477Z,62.66
2023-10-18T14:53:57.213Z,62.88
2023-10-18T14:56:24.117Z,62.93
2023-10-18T14:58:52.789Z,63.83
2023-10-18T15:01:19.961Z,64.09
2023-10-18T15:03:48.195Z,65.14
2023-10-18T15:06:15.945Z,65.05
2023-10-18T15:08:42.481Z,65.04
2023-10-18T15:11:10.782Z,64.79
2023-10-18T15:13:37.301Z,64.95
2023-10-18T15:16:05.947Z,63.97
2023-10-18T15:18:32.588Z,64.88
2023-10-18T15:20:59.137Z,64.48
2023-10-18T15:23:25.630Z,64.27
2023-10-18T15:25:52.207Z,64.45
2023-10-18T15:28:26.271Z,65.54
2023-10-18T15:30:52.741Z,64.54
2023-10-18T15:33:19.288Z,64.45
2023-10-18T15:35:45.803Z,64.23
2023-10-18T15:38:12.272Z,64.65
2023-10-18T15:40:38.801Z,64.15
2023-10-18T15:43:05.418Z,64.25
2023-10-18T15:45:31.890Z,64.00
2023-10-18T15:47:58.711Z,64.16
2023-10-18T15:50:25.374Z,64.29
2023-10-18T15:52:51.872Z,64.50
2023-10-18T15:55:18.386Z,64.60
2023-10-18T15:57:44.901Z,64.81
2023-10-18T16:00:13.198Z,65.22
2023-10-18T16:02:40.215Z,65.10
2023-10-18T16:05:07.167Z,65.14
2023-10-18T16:07:33.865Z,65.07
2023-10-18T16:10:00.353Z,64.80
2023-10-18T16:12:36.530Z,65.52
2023-10-18T16:15:03.112Z,64.85
2023-10-18T16:25:53.187Z,65.18
2023-10-18T16:28:20.229Z,65.64
2023-10-18T16:33:21.783Z,65.35
2023-10-18T16:35:55.745Z,65.47
2023-10-18T16:38:22.262Z,65.37
2023-10-18T16:40:48.786Z,65.16
2023-10-18T16:43:15.310Z,65.76
2023-10-18T16:45:41.782Z,65.80
2023-10-18T16:48:09.172Z,65.46
2023-10-18T16:50:40.184Z,65.44
2023-10-18T16:53:06.697Z,65.21
2023-10-18T16:55:33.246Z,65.37
2023-10-18T16:57:59.896Z,65.65
2023-10-18T17:00:26.514Z,65.65
2023-10-18T17:02:54.806Z,65.85
2023-10-18T17:05:21.933Z,66.38
2023-10-18T17:07:48.517Z,66.06
2023-10-18T17:10:19.373Z,65.39
2023-10-18T17:12:47.375Z,65.77
2023-10-18T17:15:16.592Z,65.88
2023-10-18T17:17:44.526Z,66.29
2023-10-18T17:20:11.948Z,66.31
2023-10-18T17:22:38.374Z,66.87
2023-10-18T17:25:05.135Z,66.56
2023-10-18T17:27:31.537Z,66.21
2023-10-18T17:29:58.024Z,66.42
2023-10-18T17:32:24.841Z,66.67
2023-10-18T17:34:51.523Z,66.56
2023-10-18T17:37:17.932Z,66.83
2023-10-18T17:39:44.389Z,67.01
2023-10-18T17:42:10.785Z,66.74
2023-10-18T17:44:37.322Z,66.90
2023-10-18T17:47:03.801Z,67.28
2023-10-18T17:49:31.335Z,68.67
2023-10-18T17:51:58.085Z,67.66
2023-10-18T17:54:26.698Z,67.82
2023-10-18T17:56:53.482Z,67.29
2023-10-18T17:59:19.915Z,67.84
2023-10-18T18:01:46.399Z,67.41
2023-10-18T18:04:12.753Z,67.76
2023-10-18T18:06:39.367Z,67.47
2023-10-18T18:09:05.865Z,67.67
2023-10-18T18:11:32.281Z,68.52
2023-10-18T18:13:59.592Z,69.13
2023-10-18T18:16:26.552Z,70.33
2023-10-18T18:18:54.414Z,70.67
2023-10-18T18:21:21.020Z,70.54
2023-10-18T18:23:47.640Z,70.63
2023-10-18T18:26:14.375Z,70.47
2023-10-18T18:28:41.761Z,70.13
2023-10-18T18:31:11.748Z,70.34
2023-10-18T18:33:38.617Z,69.65
2023-10-18T18:36:05.624Z,69.37
2023-10-18T18:38:32.294Z,69.68
2023-10-18T18:40:59.020Z,69.83
2023-10-18T18:43:25.631Z,70.25
2023-10-18T18:45:52.153Z,69.56
2023-10-18T18:48:18.806Z,69.84
2023-10-18T18:50:45.539Z,72.22
2023-10-18T18:53:12.000Z,73.71
2023-10-18T18:55:38.453Z,73.98
2023-10-18T18:58:04.868Z,73.35
2023-10-18T19:00:31.379Z,73.48
2023-10-18T19:02:57.909Z,73.18
2023-10-18T19:05:25.172Z,73.10
2023-10-18T19:07:53.781Z,73.16
2023-10-18T19:10:20.740Z,73.87
2023-10-18T19:12:48.857Z,73.30
2023-10-18T19:15:18.211Z,72.61
2023-10-18T19:17:47.430Z,73.34
2023-10-18T19:20:14.762Z,73.31
2023-10-18T19:22:41.195Z,73.13
2023-10-18T19:25:07.873Z,75.13
2023-10-18T19:27:35.856Z,74.11
2023-10-18T19:30:08.138Z,73.77
2023-10-18T19:32:34.542Z,73.48
2023-10-18T19:35:01.009Z,73.66
2023-10-18T19:37:27.402Z,73.73
2023-10-18T19:39:53.787Z,73.56
2023-10-18T19:42:20.190Z,73.43
2023-10-18T19:44:47.831Z,73.12
2023-10-18T19:47:14.934Z,73.25
2023-10-18T19:49:41.515Z,73.63
2023-10-18T19:52:09.224Z,73.01
2023-10-18T19:54:35.753Z,72.69
2023-10-18T19:57:02.165Z,73.03
2023-10-18T19:59:28.644Z,72.78
2023-10-18T20:01:55.343Z,72.66
2023-10-18T20:04:21.909Z,72.32
2023-10-18T20:06:48.430Z,72.11
2023-10-18T20:09:14.838Z,71.86
2023-10-18T20:11:41.317Z,71.75
2023-10-18T20:14:07.757Z,72.55
2023-10-18T20:16:34.779Z,72.95
2023-10-18T20:19:01.213Z,73.07
2023-10-18T20:21:27.668Z,73.48
2023-10-18T20:23:54.233Z,72.92
2023-10-18T20:26:20.647Z,73.62
2023-10-18T20:28:47.330Z,73.04
2023-10-18T20:31:13.738Z,73.61
2023-10-18T20:33:40.219Z,74.21
2023-10-18T20:36:07.265Z,74.21
2023-10-18T20:38:33.708Z,74.36
2023-10-18T20:41:00.158Z,74.60
2023-10-18T20:43:26.952Z,74.24
2023-10-18T20:46:03.916Z,75.02
2023-10-18T20:48:30.671Z,75.04
2023-10-18T20:50:57.058Z,74.73
2023-10-18T20:53:23.634Z,75.82
2023-10-18T20:55:50.162Z,75.49
2023-10-18T20:58:16.730Z,75.20
2023-10-18T21:00:44.133Z,75.17
2023-10-18T21:03:11.021Z,75.14
2023-10-18T21:05:37.865Z,75.83
2023-10-18T21:08:04.686Z,74.85
2023-10-18T21:10:32.209Z,75.79
2023-10-18T21:12:58.699Z,75.68
2023-10-18T21:15:31.740Z,76.77
2023-10-18T21:17:58.975Z,75.88
2023-10-18T21:20:25.773Z,76.90
2023-10-18T21:22:56.558Z,77.98
2023-10-18T21:25:23.034Z,77.91
2023-10-18T21:27:49.985Z,78.65
2023-10-18T21:30:18.515Z,77.90
2023-10-18T21:32:48.421Z,77.13
2023-10-18T21:35:16.580Z,78.35
2023-10-18T21:37:44.255Z,78.96
2023-10-18T21:40:13.267Z,79.25
2023-10-18T21:42:40.357Z,79.20
2023-10-18T21:45:09.542Z,78.37
2023-10-18T21:47:36.198Z,78.65
2023-10-18T21:50:03.632Z,78.71
2023-10-18T21:52:31.259Z,77.91
2023-10-18T21:54:58.395Z,78.07
2023-10-18T21:57:25.890Z,77.75
2023-10-18T21:59:52.489Z,78.12
2023-10-18T22:02:19.193Z,77.76
2023-10-18T22:04:45.866Z,77.86
2023-10-18T22:07:12.400Z,78.83
2023-10-18T22:09:38.819Z,77.92
2023-10-18T22:12:05.732Z,78.12
2023-10-18T22:14:32.659Z,78.30
2023-10-18T22:16:59.578Z,77.83
2023-10-18T22:19:26.989Z,78.52
2023-10-18T22:21:54.893Z,79.35
2023-10-18T22:24:21.353Z,79.68
2023-10-18T22:26:47.945Z,79.21
2023-10-18T22:29:15.878Z,80.03
2023-10-18T22:31:42.425Z,80.16
2023-10-18T22:34:08.905Z,79.74
2023-10-18T22:36:35.507Z,79.75
2023-10-18T22:39:02.269Z,80.14
2023-10-18T22:41:28.726Z,79.64
2023-10-18T22:43:55.179Z,81.17
2023-10-18T22:46:21.680Z,80.75
2023-10-18T22:48:48.189Z,81.13
2023-10-18T22:51:14.693Z,81.12
2023-10-18T22:53:41.162Z,80.90
2023-10-18T22:56:07.687Z,80.15
2023-10-18T22:58:34.118Z,80.73
2023-10-18T23:01:00.615Z,80.37
2023-10-18T23:03:27.085Z,81.21
2023-10-18T23:05:53.834Z,82.14
2023-10-18T23:08:20.252Z,82.16
2023-10-18T23:10:46.952Z,83.39
2023-10-18T23:13:14.732Z,83.74
2023-10-18T23:15:41.256Z,84.01
2023-10-18T23:18:07.764Z,84.28
2023-10-18T23:20:34.403Z,83.84
2023-10-18T23:23:05.666Z,84.31
2023-10-18T23:25:32.864Z,84.25
2023-10-18T23:27:59.314Z,83.96
2023-10-18T23:30:25.807Z,83.51
2023-10-18T23:32:52.355Z,83.73
2023-10-18T23:35:18.894Z,83.64
2023-10-18T23:37:48.471Z,84.41
2023-10-18T23:40:15.886Z,84.10
2023-10-18T23:42:42.475Z,83.83
2023-10-18T23:45:09.293Z,83.48
2023-10-18T23:47:35.697Z,83.49
2023-10-18T23:50:02.144Z,83.69
2023-10-18T23:52:28.607Z,83.06
2023-10-18T23:54:55.089Z,82.47
2023-10-18T23:57:21.512Z,82.01
2023-10-18T23:59:47.981Z,83.34
